Aeroporto :
LOGIN :

Iscrizione | Disclaimer

   EN    FR    IT 

 










Sommario :    VFR   VFR Marginale   IFR   IFR Intensivo   IFR Molto Intensivo
Visibilità : 
Base nubi : 
>= 8 km
>= 3000ft
5 / 8 km
1000 / 3000 ft
1500m / 5 km
500 / 1000 ft
800 / 1500m
200 / 500 ft
< 800m
< 200 ft
Simboli :   Temporali  Nebbia  Neve Forte  Precipitazioni Forti  Vento > 20 kt
SIGMETs :   Varie  Temporali  Ghiacco  Turbolenza  Onda orograficha  Ceneri Vulcaniche






- Altitudine del aeroporto : 274 ft
- Codice IATA : PUY


LDPL - Pula

ULTIMO METAR :
  • 171430Z 20005KT 150V240 CAVOK 14/08 Q1024 NOSIG

METARs OBSOLETI :
  • 171400Z 19005KT 110V260 9999 FEW022 14/07 Q1024 NOSIG
  • 171330Z 20006KT 140V250 9999 FEW022 13/05 Q1024 NOSIG
  • 171300Z 22007KT 200V260 9999 FEW022 14/06 Q1025 NOSIG
  • 171230Z 20006KT 140V250 9999 SCT022 14/07 Q1025 NOSIG
  • 171200Z 19005KT 120V230 9999 SCT015 14/08 Q1025 NOSIG

TAF TAF LDPL
Valido dal 17 a 12 ore il 18 a 12 ore UTC


171125Z 1712/1812 16005KT 9999 SCT010 BKN050 TX14/1713Z TN06/1805Z
PROB40
TEMPO 1712/1718 24008KT BKN010
PROB40
TEMPO 1718/1807 2000 MIFG BR BKN004
PROB30
TEMPO 1800/1807 0500 FG
BECMG 1810/1812 07008KT



MetMap, La meteo Aeronautica in un colpo d'occhio ! - Copyright ORBIFLY Dicembre 2007 - Disclaimer

ORBIFLY MET'MAP TEAM :

Programmazione e sviluppo : Alexandra Zaïnal
Concezione : Baudouin d'Aumeries
Aiuto per la programmazione : Marc-Olivier Méhu
Supporto tecnico e logistico : Manuel Goepfert
Aiuto per la traduzione : Arnaldo La Scala

Contatto : metmap@orbifly.com




FONTI E CREDITI :

   NOAA